PRIVATE WETTERSTATION BILLIGHEIM-ALLFELD                       ZURCK
Wetterdaten: Freitag, 21.04.2017
Datum Zeit Temp. A. Temp. A. min Temp. A. max Feuchte A. Luftdruck Regen Wind Richtung Richtung Sonnenschein ET Solar Taupunkt Windchill Windben Empfang
21.04.2017 00:00 1,0 C 1,0 C 1,2 C 73 % 1032,9 hPa 0,0 l/m 0,0 km/h (0 Bft) N 0 0 min 0,025 mm 0 W/m -3,3 C 1,0 C 0,0 km/h (0 Bft) 100 %
21.04.2017 00:10 0,8 C 0,8 C 1,0 C 75 % 1032,9 hPa 0,0 l/m 0,0 km/h (0 Bft) N 0 0 min 0,000 mm 0 W/m -3,1 C 0,8 C 0,0 km/h (0 Bft) 100 %
21.04.2017 00:20 0,6 C 0,6 C 0,8 C 78 % 1032,9 hPa 0,0 l/m 0,0 km/h (0 Bft) N-NW 337 0 min 0,000 mm 0 W/m -2,8 C 0,6 C 1,6 km/h (1 Bft) 100 %
21.04.2017 00:30 0,5 C 0,4 C 0,6 C 79 % 1032,9 hPa 0,0 l/m 0,0 km/h (0 Bft) N 0 0 min 0,000 mm 0 W/m -2,7 C 0,5 C 0,0 km/h (0 Bft) 100 %
21.04.2017 00:40 0,6 C 0,5 C 0,6 C 78 % 1032,9 hPa 0,0 l/m 0,0 km/h (0 Bft) N 0 0 min 0,000 mm 0 W/m -2,8 C 0,6 C 0,0 km/h (0 Bft) 99 %
21.04.2017 00:50 0,6 C 0,6 C 0,6 C 78 % 1032,8 hPa 0,0 l/m 0,0 km/h (0 Bft) N 0 0 min 0,000 mm 0 W/m -2,8 C 0,6 C 0,0 km/h (0 Bft) 99 %
21.04.2017 01:00 0,5 C 0,5 C 0,6 C 78 % 1032,8 hPa 0,0 l/m 0,0 km/h (0 Bft) N 0 0 min 0,000 mm 0 W/m -2,9 C 0,5 C 0,0 km/h (0 Bft) 100 %
21.04.2017 01:10 0,3 C 0,3 C 0,6 C 79 % 1032,8 hPa 0,0 l/m 0,0 km/h (0 Bft) N 0 0 min 0,000 mm 0 W/m -2,9 C 0,3 C 0,0 km/h (0 Bft) 100 %
21.04.2017 01:20 0,0 C 0,0 C 0,3 C 80 % 1032,8 hPa 0,0 l/m 0,0 km/h (0 Bft) N 0 0 min 0,000 mm 0 W/m -3,0 C 0,0 C 0,0 km/h (0 Bft) 100 %
21.04.2017 01:30 -0,1 C -0,1 C 0,0 C 81 % 1032,8 hPa 0,0 l/m 0,0 km/h (0 Bft) N 0 0 min 0,000 mm 0 W/m -3,0 C -0,1 C 0,0 km/h (0 Bft) 100 %
21.04.2017 01:40 -0,1 C -0,2 C -0,1 C 82 % 1032,6 hPa 0,0 l/m 0,0 km/h (0 Bft) N 0 0 min 0,000 mm 0 W/m -2,8 C -0,1 C 0,0 km/h (0 Bft) 89 %
21.04.2017 01:50 -0,2 C -0,2 C -0,1 C 81 % 1032,7 hPa 0,0 l/m 0,0 km/h (0 Bft) N 0 0 min 0,000 mm 0 W/m -3,1 C -0,2 C 0,0 km/h (0 Bft) 100 %
21.04.2017 02:00 -0,2 C -0,2 C -0,2 C 81 % 1032,6 hPa 0,0 l/m 0,0 km/h (0 Bft) N 0 0 min 0,000 mm 0 W/m -3,1 C -0,2 C 0,0 km/h (0 Bft) 100 %
21.04.2017 02:10 -0,3 C -0,3 C -0,2 C 82 % 1032,5 hPa 0,0 l/m 0,0 km/h (0 Bft) N 0 0 min 0,000 mm 0 W/m -3,0 C -0,3 C 0,0 km/h (0 Bft) 100 %
21.04.2017 02:20 -0,4 C -0,4 C -0,3 C 82 % 1032,4 hPa 0,0 l/m 0,0 km/h (0 Bft) N 0 0 min 0,000 mm 0 W/m -3,1 C -0,4 C 0,0 km/h (0 Bft) 100 %
21.04.2017 02:30 -0,6 C -0,6 C -0,4 C 83 % 1032,4 hPa 0,0 l/m 0,0 km/h (0 Bft) N 0 0 min 0,000 mm 0 W/m -3,1 C -0,6 C 0,0 km/h (0 Bft) 100 %
21.04.2017 02:40 -0,7 C -0,7 C -0,6 C 83 % 1032,3 hPa 0,0 l/m 0,0 km/h (0 Bft) N 0 0 min 0,000 mm 0 W/m -3,2 C -0,7 C 0,0 km/h (0 Bft) 100 %
21.04.2017 02:50 -0,8 C -0,8 C -0,7 C 84 % 1032,2 hPa 0,0 l/m 0,0 km/h (0 Bft) N 0 0 min 0,000 mm 0 W/m -3,2 C -0,8 C 0,0 km/h (0 Bft) 100 %
21.04.2017 03:00 -1,1 C -1,1 C -0,8 C 84 % 1032,2 hPa 0,0 l/m 0,0 km/h (0 Bft) N 0 0 min 0,000 mm 0 W/m -3,4 C -1,1 C 0,0 km/h (0 Bft) 100 %
21.04.2017 03:10 -1,2 C -1,2 C -1,1 C 85 % 1032,2 hPa 0,0 l/m 0,0 km/h (0 Bft) N 0 0 min 0,000 mm 0 W/m -3,4 C -1,2 C 0,0 km/h (0 Bft) 100 %
21.04.2017 03:20 -1,2 C -1,2 C -1,2 C 86 % 1032,3 hPa 0,0 l/m 0,0 km/h (0 Bft) N 0 0 min 0,000 mm 0 W/m -3,2 C -1,2 C 0,0 km/h (0 Bft) 100 %
21.04.2017 03:30 -1,1 C -1,2 C -1,1 C 87 % 1032,1 hPa 0,0 l/m 0,0 km/h (0 Bft) N 0 0 min 0,000 mm 0 W/m -3,0 C -1,1 C 0,0 km/h (0 Bft) 100 %
21.04.2017 03:40 -1,1 C -1,1 C -1,1 C 88 % 1032,0 hPa 0,0 l/m 0,0 km/h (0 Bft) N 0 0 min 0,000 mm 0 W/m -2,8 C -1,1 C 0,0 km/h (0 Bft) 100 %
21.04.2017 03:50 -1,0 C -1,1 C -1,0 C 88 % 1032,0 hPa 0,0 l/m 0,0 km/h (0 Bft) N 0 0 min 0,000 mm 0 W/m -2,7 C -1,0 C 0,0 km/h (0 Bft) 100 %
21.04.2017 04:00 -0,9 C -1,0 C -0,9 C 88 % 1032,0 hPa 0,0 l/m 0,0 km/h (0 Bft) N 0 0 min 0,000 mm 0 W/m -2,6 C -0,9 C 0,0 km/h (0 Bft) 100 %
21.04.2017 04:10 -0,8 C -0,9 C -0,8 C 88 % 1031,9 hPa 0,0 l/m 0,0 km/h (0 Bft) N 0 0 min 0,000 mm 0 W/m -2,5 C -0,8 C 0,0 km/h (0 Bft) 87 %
21.04.2017 04:20 -0,6 C -0,8 C -0,6 C 89 % 1031,8 hPa 0,0 l/m 0,0 km/h (0 Bft) N 0 0 min 0,000 mm 0 W/m -2,2 C -0,6 C 0,0 km/h (0 Bft) 100 %
21.04.2017 04:30 0,3 C -0,6 C 0,3 C 85 % 1031,8 hPa 0,0 l/m 0,0 km/h (0 Bft) N-NW 337 0 min 0,000 mm 0 W/m -1,9 C 0,3 C 1,6 km/h (1 Bft) 100 %
21.04.2017 04:40 0,6 C 0,3 C 0,6 C 83 % 1031,7 hPa 0,0 l/m 0,0 km/h (0 Bft) N 0 0 min 0,000 mm 0 W/m -1,9 C 0,6 C 0,0 km/h (0 Bft) 100 %
21.04.2017 04:50 1,1 C 0,6 C 1,1 C 80 % 1031,7 hPa 0,0 l/m 0,0 km/h (0 Bft) O-SO 112 0 min 0,000 mm 0 W/m -2,0 C 1,1 C 4,8 km/h (1 Bft) 100 %
21.04.2017 05:00 1,3 C 1,1 C 1,3 C 78 % 1031,6 hPa 0,0 l/m 3,2 km/h (1 Bft) SO 135 0 min 0,000 mm 0 W/m -2,1 C 1,3 C 8,0 km/h (2 Bft) 100 %
21.04.2017 05:10 1,4 C 1,3 C 1,4 C 78 % 1031,6 hPa 0,0 l/m 1,6 km/h (1 Bft) SO 135 0 min 0,000 mm 0 W/m -2,0 C 1,4 C 6,4 km/h (2 Bft) 100 %
21.04.2017 05:20 1,3 C 1,3 C 1,4 C 79 % 1031,4 hPa 0,0 l/m 1,6 km/h (1 Bft) S-SO 157 0 min 0,000 mm 0 W/m -1,9 C 1,3 C 6,4 km/h (2 Bft) 100 %
21.04.2017 05:30 1,2 C 1,2 C 1,3 C 78 % 1031,5 hPa 0,0 l/m 0,0 km/h (0 Bft) N 0 0 min 0,000 mm 0 W/m -2,2 C 1,2 C 0,0 km/h (0 Bft) 100 %
21.04.2017 05:40 1,1 C 1,1 C 1,2 C 78 % 1031,5 hPa 0,0 l/m 0,0 km/h (0 Bft) S-SO 157 0 min 0,000 mm 0 W/m -2,3 C 1,1 C 4,8 km/h (1 Bft) 100 %
21.04.2017 05:50 1,1 C 1,1 C 1,1 C 78 % 1031,6 hPa 0,0 l/m 1,6 km/h (1 Bft) SO 135 0 min 0,000 mm 0 W/m -2,3 C 1,1 C 4,8 km/h (1 Bft) 100 %
21.04.2017 06:00 1,1 C 1,1 C 1,1 C 78 % 1031,4 hPa 0,0 l/m 1,6 km/h (1 Bft) SO 135 0 min 0,000 mm 0 W/m -2,3 C 1,1 C 4,8 km/h (1 Bft) 100 %
21.04.2017 06:10 1,2 C 1,1 C 1,2 C 77 % 1031,4 hPa 0,0 l/m 0,0 km/h (0 Bft) SO 135 0 min 0,000 mm 0 W/m -2,4 C 1,2 C 4,8 km/h (1 Bft) 100 %
21.04.2017 06:20 1,2 C 1,1 C 1,2 C 78 % 1031,4 hPa 0,0 l/m 1,6 km/h (1 Bft) S-SO 157 0 min 0,000 mm 0 W/m -2,2 C 1,2 C 8,0 km/h (2 Bft) 100 %
21.04.2017 06:30 1,1 C 1,1 C 1,2 C 78 % 1031,5 hPa 0,0 l/m 1,6 km/h (1 Bft) S-SO 157 0 min 0,000 mm 5 W/m -2,3 C 1,1 C 6,4 km/h (2 Bft) 100 %
21.04.2017 06:40 1,1 C 1,1 C 1,1 C 78 % 1031,5 hPa 0,0 l/m 3,2 km/h (1 Bft) S-SO 157 0 min 0,000 mm 9 W/m -2,3 C 1,1 C 8,0 km/h (2 Bft) 100 %
21.04.2017 06:50 1,1 C 1,1 C 1,1 C 79 % 1031,6 hPa 0,0 l/m 1,6 km/h (1 Bft) S-SO 157 0 min 0,000 mm 16 W/m -2,1 C 1,1 C 6,4 km/h (2 Bft) 100 %
21.04.2017 07:00 1,1 C 1,1 C 1,1 C 80 % 1031,5 hPa 0,0 l/m 0,0 km/h (0 Bft) S-SO 157 0 min 0,000 mm 25 W/m -2,0 C 1,1 C 6,4 km/h (2 Bft) 100 %
21.04.2017 07:10 1,1 C 1,1 C 1,1 C 79 % 1031,5 hPa 0,0 l/m 0,0 km/h (0 Bft) N 0 0 min 0,000 mm 35 W/m -2,1 C 1,1 C 0,0 km/h (0 Bft) 89 %
21.04.2017 07:20 1,3 C 1,1 C 1,3 C 80 % 1031,6 hPa 0,0 l/m 1,6 km/h (1 Bft) S-SO 157 0 min 0,000 mm 44 W/m -1,8 C 1,3 C 4,8 km/h (1 Bft) 100 %
21.04.2017 07:30 1,4 C 1,3 C 1,4 C 79 % 1031,6 hPa 0,0 l/m 0,0 km/h (0 Bft) S-SO 157 0 min 0,000 mm 49 W/m -1,8 C 1,4 C 4,8 km/h (1 Bft) 100 %
21.04.2017 07:40 1,4 C 1,4 C 1,4 C 79 % 1031,5 hPa 0,0 l/m 3,2 km/h (1 Bft) S-SO 157 0 min 0,000 mm 49 W/m -1,8 C 1,4 C 8,0 km/h (2 Bft) 100 %
21.04.2017 07:50 1,4 C 1,4 C 1,4 C 79 % 1031,6 hPa 0,0 l/m 3,2 km/h (1 Bft) S-SO 157 0 min 0,000 mm 42 W/m -1,8 C 1,4 C 8,0 km/h (2 Bft) 100 %
21.04.2017 08:00 1,3 C 1,3 C 1,4 C 79 % 1031,6 hPa 0,0 l/m 0,0 km/h (0 Bft) S-SO 157 0 min 0,025 mm 53 W/m -1,9 C 1,3 C 6,4 km/h (2 Bft) 100 %
21.04.2017 08:10 1,4 C 1,3 C 1,4 C 78 % 1031,6 hPa 0,0 l/m 0,0 km/h (0 Bft) S-SO 157 0 min 0,000 mm 70 W/m -2,0 C 1,4 C 8,0 km/h (2 Bft) 100 %
21.04.2017 08:20 1,8 C 1,4 C 1,8 C 80 % 1031,6 hPa 0,0 l/m 3,2 km/h (1 Bft) S 180 0 min 0,000 mm 134 W/m -1,3 C 1,8 C 8,0 km/h (2 Bft) 100 %
21.04.2017 08:30 2,4 C 1,8 C 2,4 C 78 % 1031,7 hPa 0,0 l/m 1,6 km/h (1 Bft) S 180 10 min 0,000 mm 297 W/m -1,0 C 2,4 C 8,0 km/h (2 Bft) 100 %
21.04.2017 08:40 3,2 C 2,4 C 3,2 C 76 % 1031,6 hPa 0,0 l/m 1,6 km/h (1 Bft) S 180 10 min 0,000 mm 336 W/m -0,6 C 3,2 C 6,4 km/h (2 Bft) 100 %
21.04.2017 08:50 4,1 C 3,2 C 4,1 C 75 % 1031,5 hPa 0,0 l/m 1,6 km/h (1 Bft) S 180 10 min 0,000 mm 367 W/m 0,1 C 4,1 C 4,8 km/h (1 Bft) 100 %
21.04.2017 09:00 4,8 C 4,1 C 4,8 C 73 % 1031,6 hPa 0,0 l/m 1,6 km/h (1 Bft) S 180 10 min 0,102 mm 397 W/m 0,4 C 4,8 C 8,0 km/h (2 Bft) 91 %
21.04.2017 09:10 5,3 C 4,8 C 5,3 C 72 % 1031,5 hPa 0,0 l/m 3,2 km/h (1 Bft) S 180 10 min 0,000 mm 424 W/m 0,7 C 5,3 C 8,0 km/h (2 Bft) 100 %
21.04.2017 09:20 6,2 C 5,3 C 6,2 C 70 % 1031,6 hPa 0,0 l/m 1,6 km/h (1 Bft) S 180 10 min 0,000 mm 457 W/m 1,1 C 6,2 C 8,0 km/h (2 Bft) 100 %
21.04.2017 09:30 6,4 C 6,2 C 6,4 C 67 % 1031,6 hPa 0,0 l/m 3,2 km/h (1 Bft) S 180 10 min 0,000 mm 485 W/m 0,7 C 6,4 C 8,0 km/h (2 Bft) 100 %
21.04.2017 09:40 7,3 C 6,4 C 7,3 C 63 % 1031,7 hPa 0,0 l/m 1,6 km/h (1 Bft) S-SW 202 10 min 0,000 mm 510 W/m 0,7 C 7,3 C 6,4 km/h (2 Bft) 100 %
21.04.2017 09:50 7,9 C 7,3 C 7,9 C 67 % 1031,6 hPa 0,0 l/m 1,6 km/h (1 Bft) S 180 10 min 0,000 mm 538 W/m 2,2 C 7,9 C 11,3 km/h (2 Bft) 100 %
21.04.2017 10:00 8,6 C 7,9 C 8,6 C 62 % 1031,6 hPa 0,0 l/m 3,2 km/h (1 Bft) S 180 10 min 0,203 mm 568 W/m 1,7 C 8,6 C 14,5 km/h (3 Bft) 100 %
21.04.2017 10:10 9,1 C 8,6 C 9,1 C 60 % 1031,6 hPa 0,0 l/m 4,8 km/h (1 Bft) SW 225 10 min 0,000 mm 594 W/m 1,8 C 9,1 C 9,7 km/h (2 Bft) 100 %
21.04.2017 10:20 10,0 C 9,1 C 10,0 C 55 % 1031,6 hPa 0,0 l/m 6,4 km/h (2 Bft) SW 225 10 min 0,000 mm 619 W/m 1,4 C 10,0 C 14,5 km/h (3 Bft) 100 %
21.04.2017 10:30 10,4 C 10,0 C 10,4 C 56 % 1031,5 hPa 0,0 l/m 4,8 km/h (1 Bft) S-SW 202 10 min 0,000 mm 640 W/m 2,0 C 10,4 C 11,3 km/h (2 Bft) 100 %
21.04.2017 10:40 11,0 C 10,4 C 11,0 C 53 % 1031,5 hPa 0,0 l/m 6,4 km/h (2 Bft) W-SW 247 10 min 0,000 mm 664 W/m 1,8 C 11,0 C 14,5 km/h (3 Bft) 100 %
21.04.2017 10:50 11,3 C 11,0 C 11,3 C 48 % 1031,5 hPa 0,0 l/m 8,0 km/h (2 Bft) SW 225 10 min 0,000 mm 694 W/m 0,7 C 10,2 C 19,3 km/h (3 Bft) 100 %
21.04.2017 11:00 11,6 C 11,3 C 11,6 C 46 % 1031,4 hPa 0,0 l/m 8,0 km/h (2 Bft) W 270 10 min 0,330 mm 712 W/m 0,4 C 10,5 C 19,3 km/h (3 Bft) 100 %
21.04.2017 11:10 12,2 C 11,6 C 12,2 C 47 % 1031,5 hPa 0,0 l/m 8,0 km/h (2 Bft) W-SW 247 10 min 0,000 mm 728 W/m 1,2 C 11,2 C 19,3 km/h (3 Bft) 100 %
21.04.2017 11:20 12,4 C 12,2 C 12,4 C 49 % 1031,4 hPa 0,0 l/m 8,0 km/h (2 Bft) W-SW 247 10 min 0,000 mm 742 W/m 2,0 C 11,4 C 16,1 km/h (3 Bft) 100 %
21.04.2017 11:30 12,9 C 12,4 C 12,9 C 42 % 1031,4 hPa 0,0 l/m 6,4 km/h (2 Bft) W-SW 247 10 min 0,000 mm 765 W/m 0,3 C 12,9 C 16,1 km/h (3 Bft) 100 %
21.04.2017 11:40 12,9 C 12,8 C 12,9 C 46 % 1031,3 hPa 0,0 l/m 4,8 km/h (1 Bft) SW 225 10 min 0,000 mm 773 W/m 1,6 C 12,9 C 20,9 km/h (4 Bft) 100 %
21.04.2017 11:50 13,1 C 12,9 C 13,1 C 45 % 1031,3 hPa 0,0 l/m 8,0 km/h (2 Bft) W-SW 247 10 min 0,000 mm 791 W/m 1,4 C 12,1 C 19,3 km/h (3 Bft) 100 %
21.04.2017 12:00 12,9 C 12,8 C 13,1 C 47 % 1031,1 hPa 0,0 l/m 6,4 km/h (2 Bft) SW 225 10 min 0,406 mm 800 W/m 1,9 C 12,9 C 17,7 km/h (3 Bft) 100 %
21.04.2017 12:10 13,3 C 12,9 C 13,3 C 43 % 1030,9 hPa 0,0 l/m 4,8 km/h (1 Bft) W 270 10 min 0,000 mm 814 W/m 1,0 C 13,3 C 14,5 km/h (3 Bft) 100 %
21.04.2017 12:20 13,8 C 13,3 C 13,8 C 44 % 1030,8 hPa 0,0 l/m 6,4 km/h (2 Bft) W-NW 292 10 min 0,000 mm 824 W/m 1,8 C 13,8 C 20,9 km/h (4 Bft) 100 %
21.04.2017 12:30 13,5 C 13,5 C 13,9 C 44 % 1030,7 hPa 0,0 l/m 3,2 km/h (1 Bft) W 270 10 min 0,000 mm 826 W/m 1,5 C 13,5 C 17,7 km/h (3 Bft) 100 %
21.04.2017 12:40 13,4 C 13,4 C 13,5 C 42 % 1030,6 hPa 0,0 l/m 6,4 km/h (2 Bft) W 270 10 min 0,000 mm 830 W/m 0,8 C 13,4 C 14,5 km/h (3 Bft) 100 %
21.04.2017 12:50 13,6 C 13,4 C 13,6 C 45 % 1030,5 hPa 0,0 l/m 6,4 km/h (2 Bft) W-NW 292 10 min 0,000 mm 837 W/m 1,9 C 13,6 C 20,9 km/h (4 Bft) 100 %
21.04.2017 13:00 13,7 C 13,5 C 13,7 C 44 % 1030,4 hPa 0,0 l/m 6,4 km/h (2 Bft) SW 225 10 min 0,457 mm 838 W/m 1,7 C 13,7 C 19,3 km/h (3 Bft) 100 %
21.04.2017 13:10 13,7 C 13,7 C 13,8 C 42 % 1030,4 hPa 0,0 l/m 8,0 km/h (2 Bft) W-SW 247 10 min 0,000 mm 838 W/m 1,0 C 12,7 C 17,7 km/h (3 Bft) 100 %
21.04.2017 13:20 13,4 C 13,4 C 13,7 C 44 % 1030,2 hPa 0,0 l/m 9,7 km/h (2 Bft) SW 225 10 min 0,000 mm 838 W/m 1,4 C 11,5 C 22,5 km/h (4 Bft) 100 %
21.04.2017 13:30 13,4 C 13,4 C 13,4 C 44 % 1030,1 hPa 0,0 l/m 8,0 km/h (2 Bft) SW 225 10 min 0,000 mm 844 W/m 1,4 C 12,4 C 22,5 km/h (4 Bft) 100 %
21.04.2017 13:40 13,7 C 13,4 C 13,7 C 42 % 1030,0 hPa 0,0 l/m 8,0 km/h (2 Bft) W-SW 247 10 min 0,000 mm 840 W/m 1,0 C 12,7 C 17,7 km/h (3 Bft) 100 %
21.04.2017 13:50 14,2 C 13,7 C 14,2 C 43 % 1029,9 hPa 0,0 l/m 4,8 km/h (1 Bft) W 270 10 min 0,000 mm 837 W/m 1,8 C 14,2 C 17,7 km/h (3 Bft) 100 %
21.04.2017 14:00 14,4 C 14,2 C 14,4 C 40 % 1029,7 hPa 0,0 l/m 9,7 km/h (2 Bft) W-NW 292 10 min 0,483 mm 828 W/m 1,0 C 12,6 C 22,5 km/h (4 Bft) 100 %
21.04.2017 14:10 14,6 C 14,4 C 14,6 C 38 % 1029,6 hPa 0,0 l/m 6,4 km/h (2 Bft) W-NW 292 10 min 0,000 mm 823 W/m 0,4 C 14,6 C 17,7 km/h (3 Bft) 100 %
21.04.2017 14:20 14,4 C 14,4 C 14,7 C 39 % 1029,5 hPa 0,0 l/m 9,7 km/h (2 Bft) S-SW 202 10 min 0,000 mm 819 W/m 0,6 C 12,6 C 24,1 km/h (4 Bft) 99 %
21.04.2017 14:30 14,3 C 14,3 C 14,4 C 39 % 1029,4 hPa 0,0 l/m 8,0 km/h (2 Bft) W 270 10 min 0,000 mm 802 W/m 0,5 C 13,4 C 24,1 km/h (4 Bft) 100 %
21.04.2017 14:40 14,4 C 14,2 C 14,4 C 40 % 1029,3 hPa 0,0 l/m 8,0 km/h (2 Bft) SW 225 10 min 0,000 mm 796 W/m 1,0 C 13,5 C 22,5 km/h (4 Bft) 100 %
21.04.2017 14:50 14,8 C 14,4 C 14,8 C 38 % 1029,1 hPa 0,0 l/m 6,4 km/h (2 Bft) S-SW 202 10 min 0,000 mm 786 W/m 0,6 C 14,8 C 22,5 km/h (4 Bft) 100 %
21.04.2017 15:10 15,0 C 14,4 C 15,0 C 39 % 1028,9 hPa 0,0 l/m 12,2 km/h (2 Bft) S 182 0 min 0,407 mm 109 W/m 1,2 C 12,2 C 22,5 km/h (4 Bft) 100 %
21.04.2017 15:20 14,9 C 14,8 C 15,0 C 39 % 1028,6 hPa 0,0 l/m 8,4 km/h (2 Bft) W 267 0 min 0,000 mm 109 W/m 1,1 C 13,8 C 22,5 km/h (4 Bft) 100 %
21.04.2017 15:30 15,0 C 14,9 C 15,0 C 42 % 1028,5 hPa 0,0 l/m 9,0 km/h (2 Bft) W 273 0 min 0,000 mm 109 W/m 2,2 C 13,6 C 27,4 km/h (4 Bft) 100 %
21.04.2017 15:40 15,1 C 15,0 C 15,1 C 40 % 1028,3 hPa 0,0 l/m 7,5 km/h (2 Bft) W-NW 300 0 min 0,000 mm 107 W/m 1,6 C 14,5 C 22,5 km/h (4 Bft) 100 %
21.04.2017 15:50 15,1 C 15,1 C 15,1 C 42 % 1028,1 hPa 0,0 l/m 5,6 km/h (1 Bft) S-SW 209 0 min 0,000 mm 105 W/m 2,3 C 15,1 C 20,9 km/h (4 Bft) 99 %
21.04.2017 16:00 15,1 C 15,1 C 15,1 C 41 % 1027,9 hPa 0,0 l/m 8,1 km/h (2 Bft) SW 228 0 min 0,127 mm 111 W/m 2,0 C 14,2 C 17,7 km/h (3 Bft) 99 %
21.04.2017 16:10 15,1 C 15,1 C 15,1 C 40 % 1027,7 hPa 0,0 l/m 8,4 km/h (2 Bft) NW 323 0 min 0,000 mm 121 W/m 1,6 C 14,0 C 19,3 km/h (3 Bft) 98 %
21.04.2017 16:20 15,1 C 15,1 C 15,1 C 46 % 1027,7 hPa 0,0 l/m 8,5 km/h (2 Bft) S-SW 212 10 min 0,000 mm 169 W/m 3,6 C 13,9 C 19,3 km/h (3 Bft) 97 %
21.04.2017 16:30 15,1 C 15,0 C 15,1 C 42 % 1027,5 hPa 0,0 l/m 8,9 km/h (2 Bft) SW 219 10 min 0,000 mm 246 W/m 2,3 C 13,7 C 20,9 km/h (4 Bft) 99 %
21.04.2017 16:40 15,4 C 15,1 C 15,4 C 42 % 1027,4 hPa 0,0 l/m 11,6 km/h (2 Bft) W 274 10 min 0,000 mm 309 W/m 2,6 C 12,9 C 25,7 km/h (4 Bft) 99 %
21.04.2017 16:50 15,4 C 15,4 C 15,6 C 42 % 1027,3 hPa 0,0 l/m 10,3 km/h (2 Bft) W-NW 290 10 min 0,000 mm 258 W/m 2,6 C 13,4 C 22,5 km/h (4 Bft) 98 %
21.04.2017 17:00 15,1 C 15,1 C 15,4 C 43 % 1027,2 hPa 0,0 l/m 7,9 km/h (2 Bft) SW 228 10 min 0,178 mm 234 W/m 2,6 C 14,3 C 20,9 km/h (4 Bft) 100 %
21.04.2017 17:10 14,9 C 14,9 C 15,1 C 44 % 1027,2 hPa 0,0 l/m 5,5 km/h (1 Bft) NW 305 10 min 0,000 mm 188 W/m 2,8 C 14,9 C 14,5 km/h (3 Bft) 100 %
21.04.2017 17:20 14,8 C 14,8 C 14,9 C 46 % 1027,0 hPa 0,0 l/m 5,8 km/h (2 Bft) NW 322 10 min 0,000 mm 172 W/m 3,3 C 14,8 C 14,5 km/h (3 Bft) 99 %
21.04.2017 17:30 14,5 C 14,5 C 14,8 C 45 % 1027,0 hPa 0,0 l/m 6,6 km/h (2 Bft) NW 319 0 min 0,000 mm 149 W/m 2,7 C 14,4 C 17,7 km/h (3 Bft) 100 %
21.04.2017 17:40 14,3 C 14,3 C 14,6 C 44 % 1027,0 hPa 0,0 l/m 9,4 km/h (2 Bft) NW 315 0 min 0,000 mm 135 W/m 2,2 C 12,6 C 20,9 km/h (4 Bft) 100 %
21.04.2017 17:50 14,2 C 14,1 C 14,3 C 46 % 1026,9 hPa 0,0 l/m 5,3 km/h (1 Bft) N-NW 327 0 min 0,000 mm 130 W/m 2,8 C 14,2 C 17,7 km/h (3 Bft) 100 %
21.04.2017 18:00 14,1 C 14,1 C 14,2 C 45 % 1026,9 hPa 0,0 l/m 5,9 km/h (2 Bft) NW 306 0 min 0,127 mm 127 W/m 2,4 C 14,1 C 17,7 km/h (3 Bft) 100 %
21.04.2017 18:10 14,0 C 14,0 C 14,1 C 46 % 1026,8 hPa 0,0 l/m 6,3 km/h (2 Bft) N-NW 332 0 min 0,000 mm 120 W/m 2,6 C 14,0 C 14,5 km/h (3 Bft) 100 %
21.04.2017 18:20 13,9 C 13,9 C 14,0 C 47 % 1026,8 hPa 0,0 l/m 5,3 km/h (1 Bft) NW 313 0 min 0,000 mm 100 W/m 2,8 C 13,9 C 14,5 km/h (3 Bft) 100 %
21.04.2017 18:30 13,8 C 13,8 C 13,9 C 47 % 1026,8 hPa 0,0 l/m 1,2 km/h (1 Bft) W-NW 300 0 min 0,000 mm 77 W/m 2,7 C 13,8 C 6,4 km/h (2 Bft) 100 %
21.04.2017 18:40 13,8 C 13,8 C 13,8 C 46 % 1026,7 hPa 0,0 l/m 2,4 km/h (1 Bft) NW 308 0 min 0,000 mm 60 W/m 2,4 C 13,8 C 6,4 km/h (2 Bft) 100 %
21.04.2017 18:50 13,6 C 13,6 C 13,8 C 49 % 1026,7 hPa 0,0 l/m 1,1 km/h (1 Bft) W-NW 300 0 min 0,000 mm 51 W/m 3,1 C 13,6 C 6,4 km/h (2 Bft) 100 %
21.04.2017 19:00 13,4 C 13,4 C 13,6 C 47 % 1026,6 hPa 0,0 l/m 3,5 km/h (1 Bft) W-NW 300 0 min 0,076 mm 42 W/m 2,3 C 13,4 C 9,7 km/h (2 Bft) 100 %
21.04.2017 19:10 13,3 C 13,3 C 13,4 C 49 % 1026,6 hPa 0,0 l/m 0,1 km/h (0 Bft) W-NW 303 0 min 0,000 mm 37 W/m 2,8 C 13,3 C 4,8 km/h (1 Bft) 100 %
21.04.2017 19:20 13,2 C 13,2 C 13,3 C 49 % 1026,6 hPa 0,0 l/m 0,0 km/h (0 Bft) NW 307 0 min 0,000 mm 30 W/m 2,7 C 13,2 C 1,6 km/h (1 Bft) 100 %
21.04.2017 19:30 13,1 C 13,1 C 13,2 C 49 % 1026,5 hPa 0,0 l/m 0,0 km/h (0 Bft) NW 307 0 min 0,000 mm 28 W/m 2,6 C 13,1 C 0,0 km/h (0 Bft) 100 %
21.04.2017 19:40 12,9 C 12,9 C 13,1 C 49 % 1026,4 hPa 0,0 l/m 0,0 km/h (0 Bft) NW 307 0 min 0,000 mm 23 W/m 2,5 C 12,9 C 0,0 km/h (0 Bft) 100 %
21.04.2017 19:50 12,7 C 12,7 C 12,9 C 51 % 1026,3 hPa 0,0 l/m 2,0 km/h (1 Bft) NW 309 0 min 0,000 mm 18 W/m 2,8 C 12,7 C 6,4 km/h (2 Bft) 100 %
21.04.2017 20:00 12,6 C 12,6 C 12,7 C 52 % 1026,3 hPa 0,0 l/m 0,2 km/h (0 Bft) NW 310 0 min 0,026 mm 14 W/m 3,0 C 12,6 C 4,8 km/h (1 Bft) 100 %
21.04.2017 20:10 12,4 C 12,4 C 12,6 C 53 % 1026,3 hPa 0,0 l/m 0,9 km/h (0 Bft) NW 318 0 min 0,000 mm 9 W/m 3,1 C 12,4 C 6,4 km/h (2 Bft) 100 %
21.04.2017 20:20 12,1 C 12,1 C 12,4 C 53 % 1026,2 hPa 0,0 l/m 0,0 km/h (0 Bft) NW 317 0 min 0,000 mm 0 W/m 2,8 C 12,1 C 1,6 km/h (1 Bft) 100 %
21.04.2017 20:30 11,9 C 11,9 C 12,2 C 52 % 1026,2 hPa 0,0 l/m 0,5 km/h (0 Bft) NW 315 0 min 0,000 mm 0 W/m 2,4 C 11,9 C 4,8 km/h (1 Bft) 100 %
21.04.2017 20:40 11,6 C 11,6 C 11,9 C 53 % 1026,3 hPa 0,0 l/m 0,4 km/h (0 Bft) NW 317 0 min 0,000 mm 0 W/m 2,4 C 11,6 C 4,8 km/h (1 Bft) 100 %
21.04.2017 20:50 11,3 C 11,3 C 11,6 C 53 % 1026,3 hPa 0,0 l/m 0,0 km/h (0 Bft) NW 317 0 min 0,000 mm 0 W/m 2,1 C 11,3 C 1,6 km/h (1 Bft) 100 %
21.04.2017 21:00 10,9 C 10,9 C 11,3 C 54 % 1026,3 hPa 0,0 l/m 0,0 km/h (0 Bft) NW 317 0 min 0,000 mm 0 W/m 2,0 C 10,9 C 0,0 km/h (0 Bft) 100 %
21.04.2017 21:10 10,5 C 10,5 C 10,9 C 56 % 1026,4 hPa 0,0 l/m 0,0 km/h (0 Bft) N 0 0 min 0,000 mm 0 W/m 2,1 C 10,5 C 0,0 km/h (0 Bft) 100 %
21.04.2017 21:20 10,2 C 10,2 C 10,5 C 57 % 1026,5 hPa 0,0 l/m 0,0 km/h (0 Bft) N 0 0 min 0,000 mm 0 W/m 2,1 C 10,2 C 0,0 km/h (0 Bft) 100 %
21.04.2017 21:30 9,9 C 9,9 C 10,2 C 60 % 1026,3 hPa 0,0 l/m 0,0 km/h (0 Bft) NW 315 0 min 0,000 mm 0 W/m 2,5 C 9,9 C 4,8 km/h (1 Bft) 100 %
21.04.2017 21:40 9,9 C 9,9 C 10,0 C 61 % 1026,4 hPa 0,0 l/m 0,0 km/h (0 Bft) N 0 0 min 0,000 mm 0 W/m 2,7 C 9,9 C 0,0 km/h (0 Bft) 100 %
21.04.2017 21:50 9,8 C 9,8 C 9,9 C 61 % 1026,4 hPa 0,0 l/m 0,0 km/h (0 Bft) N 0 0 min 0,000 mm 0 W/m 2,6 C 9,8 C 0,0 km/h (0 Bft) 100 %
21.04.2017 22:00 9,8 C 9,8 C 9,8 C 61 % 1026,3 hPa 0,0 l/m 0,0 km/h (0 Bft) N 0 0 min 0,025 mm 0 W/m 2,6 C 9,8 C 0,0 km/h (0 Bft) 100 %
21.04.2017 22:10 9,7 C 9,7 C 9,8 C 60 % 1026,2 hPa 0,0 l/m 0,0 km/h (0 Bft) N 0 0 min 0,000 mm 0 W/m 2,3 C 9,7 C 0,0 km/h (0 Bft) 100 %
21.04.2017 22:20 9,8 C 9,7 C 9,8 C 59 % 1026,2 hPa 0,0 l/m 0,0 km/h (0 Bft) N 0 0 min 0,000 mm 0 W/m 2,2 C 9,8 C 0,0 km/h (0 Bft) 100 %
21.04.2017 22:30 9,8 C 9,8 C 9,8 C 61 % 1026,2 hPa 0,0 l/m 0,0 km/h (0 Bft) N 0 0 min 0,000 mm 0 W/m 2,6 C 9,8 C 0,0 km/h (0 Bft) 100 %
21.04.2017 22:40 9,9 C 9,8 C 9,9 C 60 % 1026,1 hPa 0,0 l/m 0,0 km/h (0 Bft) N 0 0 min 0,000 mm 0 W/m 2,5 C 9,9 C 0,0 km/h (0 Bft) 100 %
21.04.2017 22:50 9,9 C 9,9 C 9,9 C 62 % 1026,1 hPa 0,0 l/m 0,0 km/h (0 Bft) N 0 0 min 0,000 mm 0 W/m 3,0 C 9,9 C 0,0 km/h (0 Bft) 100 %
21.04.2017 23:00 9,9 C 9,9 C 9,9 C 62 % 1026,1 hPa 0,0 l/m 0,0 km/h (0 Bft) N 0 0 min 0,025 mm 0 W/m 3,0 C 9,9 C 0,0 km/h (0 Bft) 100 %
21.04.2017 23:10 9,8 C 9,8 C 9,9 C 62 % 1025,9 hPa 0,0 l/m 0,0 km/h (0 Bft) N 0 0 min 0,000 mm 0 W/m 2,9 C 9,8 C 0,0 km/h (0 Bft) 100 %
21.04.2017 23:20 9,8 C 9,8 C 9,8 C 61 % 1025,8 hPa 0,0 l/m 0,0 km/h (0 Bft) N 0 0 min 0,000 mm 0 W/m 2,6 C 9,8 C 0,0 km/h (0 Bft) 100 %
21.04.2017 23:30 9,9 C 9,8 C 9,9 C 61 % 1025,7 hPa 0,0 l/m 0,0 km/h (0 Bft) NW 315 0 min 0,000 mm 0 W/m 2,7 C 9,9 C 1,6 km/h (1 Bft) 100 %
21.04.2017 23:40 10,0 C 9,9 C 10,0 C 60 % 1025,7 hPa 0,0 l/m 0,0 km/h (0 Bft) N 0 0 min 0,000 mm 0 W/m 2,6 C 10,0 C 0,0 km/h (0 Bft) 100 %
21.04.2017 23:50 9,9 C 9,9 C 10,0 C 61 % 1025,7 hPa 0,0 l/m 0,0 km/h (0 Bft) N 0 0 min 0,000 mm 0 W/m 2,7 C 9,9 C 0,0 km/h (0 Bft) 100 %
_ Min-Zeit 03:10 03:10 03:20 14:10 23:30 - 00:00 - - - - - 03:00 03:10 00:00 04:10
Minimum _ -1,2 C -1,2 C -1,2 C 38 % 1025,7 hPa - 0,0 km/h (0 Bft) - - - - - -3,4 C -1,2 C 0,0 km/h (0 Bft) 87 %
_ Max-Zeit 16:50 16:50 16:50 04:20 00:00 00:00 15:10 - - 08:30 14:00 13:30 16:20 15:50 15:30 01:20
Maximum _ 15,6 C 15,4 C 15,6 C 89 % 1032,9 hPa 0,0 l/m 12,2 km/h
S (2 Bft)
- - 10 min 0,483 mm 844 W/m 3,6 C 15,1 C 27,4 km/h
W (4 Bft)
100 %
Durchschnitt _ 7,8 C 7,7 C 7,9 C 62 % 1029,8 hPa #0,0 l/m 2,9 km/h (1 Bft) SW - #7:40 h #3,022 mm 377 W/m 0,3 C 7,6 C 8,5 km/h (2 Bft) 100 %
PRIVATE WETTERSTATION BILLIGHEIM-ALLFELD - www.neckar-odenwald-wetter.de - Holger Sonntag